Terminal Aerodrome Forecast
Issued by NWS Cleveland, OH

Home | Current Version | Previous Version | Text Only | Print | Product List | Glossary On
Versions: 1 2 3 4 5 6 7 8 9 10 11 12 13 14 15 16 17 18 19
000
FTUS41 KCLE 280500
TAFMFD
TAF
KMFD 280523Z 2806/2906 30008KT P6SM -SHSN SCT015 OVC035
      TEMPO 2806/2809 3SM -SHSN OVC015
     FM280900 25005KT P6SM SCT025 BKN045
      TEMPO 2809/2812 6SM -SHSN BKN025
     FM282000 23008KT P6SM BKN045 OVC120
     FM290000 18010KT P6SM BKN045 OVC120=

USA.gov is the U.S. government's official web portal to all federal, state and local government web resources and services.